sensor_id;sensor_type;location;lat;lon;timestamp;pressure;altitude;pressure_sealevel;temperature
68932;BMP180;55970;50.064;8.228;2022-07-29T10:55:48;99742.00;;;26.00
68932;BMP180;55970;50.064;8.228;2022-07-29T10:58:16;99740.00;;;26.00
68932;BMP180;55970;50.064;8.228;2022-07-29T11:00:42;99743.00;;;25.90
68932;BMP180;55970;50.064;8.228;2022-07-29T11:03:08;99731.00;;;25.90
68932;BMP180;55970;50.064;8.228;2022-07-29T11:05:51;99730.00;;;26.00
68932;BMP180;55970;50.064;8.228;2022-07-29T11:08:19;99736.00;;;25.90
68932;BMP180;55970;50.064;8.228;2022-07-29T11:16:11;99723.00;;;25.90
68932;BMP180;55970;50.064;8.228;2022-07-29T11:21:38;99727.00;;;26.00
68932;BMP180;55970;50.064;8.228;2022-07-29T11:24:13;99717.00;;;26.00
68932;BMP180;55970;50.064;8.228;2022-07-29T11:26:39;99717.00;;;26.00
68932;BMP180;55970;50.064;8.228;2022-07-29T11:29:21;99720.00;;;26.10
68932;BMP180;55970;50.064;8.228;2022-07-29T11:31:51;99726.00;;;26.10
68932;BMP180;55970;50.064;8.228;2022-07-29T11:34:29;99717.00;;;26.10
68932;BMP180;55970;50.064;8.228;2022-07-29T11:47:24;99709.00;;;26.10
68932;BMP180;55970;50.064;8.228;2022-07-29T11:49:51;99704.00;;;26.10
68932;BMP180;55970;50.064;8.228;2022-07-29T11:52:18;99707.00;;;26.20
68932;BMP180;55970;50.064;8.228;2022-07-29T11:54:43;99709.00;;;26.20
68932;BMP180;55970;50.064;8.228;2022-07-29T11:57:09;99711.00;;;26.40
68932;BMP180;55970;50.064;8.228;2022-07-29T11:59:40;99700.00;;;26.50
68932;BMP180;55970;50.064;8.228;2022-07-29T12:02:07;99701.00;;;25.30
68932;BMP180;55970;50.064;8.228;2022-07-29T12:04:32;99696.00;;;25.00
68932;BMP180;55970;50.064;8.228;2022-07-29T12:06:57;99704.00;;;24.90
68932;BMP180;55970;50.064;8.228;2022-07-29T12:09:23;99690.00;;;25.00
68932;BMP180;55970;50.064;8.228;2022-07-29T12:11:58;99698.00;;;25.00
68932;BMP180;55970;50.064;8.228;2022-07-29T12:14:28;99694.00;;;25.00
68932;BMP180;55970;50.064;8.228;2022-07-29T12:16:53;99697.00;;;25.00
68932;BMP180;55970;50.064;8.228;2022-07-29T12:19:19;99687.00;;;25.00
68932;BMP180;55970;50.064;8.228;2022-07-29T12:21:49;99688.00;;;25.10
68932;BMP180;55970;50.064;8.228;2022-07-29T12:24:15;99694.00;;;25.10
68932;BMP180;55970;50.064;8.228;2022-07-29T12:27:00;99683.00;;;25.10
68932;BMP180;55970;50.064;8.228;2022-07-29T12:29:26;99688.00;;;25.10
68932;BMP180;55970;50.064;8.228;2022-07-29T12:31:55;99687.00;;;25.10
68932;BMP180;55970;50.064;8.228;2022-07-29T12:34:22;99675.00;;;25.10
68932;BMP180;55970;50.064;8.228;2022-07-29T12:36:49;99673.00;;;25.10
68932;BMP180;55970;50.064;8.228;2022-07-29T12:39:16;99679.00;;;25.10
68932;BMP180;55970;50.064;8.228;2022-07-29T12:41:42;99679.00;;;25.10
68932;BMP180;55970;50.064;8.228;2022-07-29T12:44:08;99680.00;;;25.20
68932;BMP180;55970;50.064;8.228;2022-07-29T12:46:33;99676.00;;;25.20
68932;BMP180;55970;50.064;8.228;2022-07-29T12:48:59;99670.00;;;25.10
68932;BMP180;55970;50.064;8.228;2022-07-29T12:51:32;99673.00;;;25.10
68932;BMP180;55970;50.064;8.228;2022-07-29T12:54:03;99676.00;;;25.10
68932;BMP180;55970;50.064;8.228;2022-07-29T12:56:28;99669.00;;;25.10
68932;BMP180;55970;50.064;8.228;2022-07-29T12:58:54;99676.00;;;25.10
68932;BMP180;55970;50.064;8.228;2022-07-29T13:01:20;99677.00;;;25.10
68932;BMP180;55970;50.064;8.228;2022-07-29T13:03:57;99687.00;;;25.20
68932;BMP180;55970;50.064;8.228;2022-07-29T13:06:45;99688.00;;;25.20
68932;BMP180;55970;50.064;8.228;2022-07-29T13:09:18;99692.00;;;25.30
68932;BMP180;55970;50.064;8.228;2022-07-29T13:11:49;99689.00;;;25.30
68932;BMP180;55970;50.064;8.228;2022-07-29T13:14:35;99699.00;;;25.40
68932;BMP180;55970;50.064;8.228;2022-07-29T13:17:10;99700.00;;;25.30
68932;BMP180;55970;50.064;8.228;2022-07-29T13:19:44;99701.00;;;25.30
68932;BMP180;55970;50.064;8.228;2022-07-29T13:22:11;99697.00;;;25.30
68932;BMP180;55970;50.064;8.228;2022-07-29T13:24:54;99696.00;;;25.30
68932;BMP180;55970;50.064;8.228;2022-07-29T13:27:22;99706.00;;;25.30
68932;BMP180;55970;50.064;8.228;2022-07-29T13:29:47;99706.00;;;25.40
68932;BMP180;55970;50.064;8.228;2022-07-29T13:32:13;99710.00;;;25.50
68932;BMP180;55970;50.064;8.228;2022-07-29T13:34:39;99703.00;;;25.50
68932;BMP180;55970;50.064;8.228;2022-07-29T13:37:05;99694.00;;;25.50
68932;BMP180;55970;50.064;8.228;2022-07-29T13:39:31;99691.00;;;25.50
68932;BMP180;55970;50.064;8.228;2022-07-29T13:41:56;99697.00;;;25.50
68932;BMP180;55970;50.064;8.228;2022-07-29T13:44:21;99692.00;;;25.40
68932;BMP180;55970;50.064;8.228;2022-07-29T13:46:47;99697.00;;;25.40
68932;BMP180;55970;50.064;8.228;2022-07-29T13:49:12;99702.00;;;25.50
68932;BMP180;55970;50.064;8.228;2022-07-29T13:51:38;99712.00;;;25.50
68932;BMP180;55970;50.064;8.228;2022-07-29T13:54:04;99706.00;;;25.50
68932;BMP180;55970;50.064;8.228;2022-07-29T13:56:29;99702.00;;;25.60
68932;BMP180;55970;50.064;8.228;2022-07-29T13:58:55;99715.00;;;25.60
68932;BMP180;55970;50.064;8.228;2022-07-29T14:01:20;99704.00;;;25.60
68932;BMP180;55970;50.064;8.228;2022-07-29T14:03:45;99704.00;;;25.50
68932;BMP180;55970;50.064;8.228;2022-07-29T14:09:05;99687.00;;;25.90
68932;BMP180;55970;50.064;8.228;2022-07-29T14:11:32;99701.00;;;25.90
68932;BMP180;55970;50.064;8.228;2022-07-29T14:13:57;99695.00;;;25.90
68932;BMP180;55970;50.064;8.228;2022-07-29T14:16:22;99700.00;;;25.90
68932;BMP180;55970;50.064;8.228;2022-07-29T14:18:48;99696.00;;;25.90
68932;BMP180;55970;50.064;8.228;2022-07-29T14:21:13;99701.00;;;25.90
68932;BMP180;55970;50.064;8.228;2022-07-29T14:23:38;99695.00;;;26.00
68932;BMP180;55970;50.064;8.228;2022-07-29T14:26:04;99687.00;;;26.00
68932;BMP180;55970;50.064;8.228;2022-07-29T14:28:30;99691.00;;;26.00
68932;BMP180;55970;50.064;8.228;2022-07-29T14:30:55;99689.00;;;26.00
68932;BMP180;55970;50.064;8.228;2022-07-29T14:33:20;99692.00;;;26.00
68932;BMP180;55970;50.064;8.228;2022-07-29T14:35:46;99697.00;;;26.00
68932;BMP180;55970;50.064;8.228;2022-07-29T14:38:11;99696.00;;;26.00
68932;BMP180;55970;50.064;8.228;2022-07-29T14:40:36;99699.00;;;26.00
68932;BMP180;55970;50.064;8.228;2022-07-29T14:43:02;99699.00;;;26.00
68932;BMP180;55970;50.064;8.228;2022-07-29T14:45:27;99698.00;;;26.00
68932;BMP180;55970;50.064;8.228;2022-07-29T14:47:53;99690.00;;;26.00
68932;BMP180;55970;50.064;8.228;2022-07-29T14:50:19;99693.00;;;26.00
68932;BMP180;55970;50.064;8.228;2022-07-29T14:52:45;99687.00;;;26.00
68932;BMP180;55970;50.064;8.228;2022-07-29T14:55:10;99687.00;;;26.00
68932;BMP180;55970;50.064;8.228;2022-07-29T14:57:36;99690.00;;;26.00
68932;BMP180;55970;50.064;8.228;2022-07-29T15:00:03;99704.00;;;26.00
68932;BMP180;55970;50.064;8.228;2022-07-29T15:02:29;99699.00;;;26.00
68932;BMP180;55970;50.064;8.228;2022-07-29T15:04:54;99711.00;;;26.00
68932;BMP180;55970;50.064;8.228;2022-07-29T15:07:19;99723.00;;;26.10
68932;BMP180;55970;50.064;8.228;2022-07-29T15:09:45;99720.00;;;26.00
68932;BMP180;55970;50.064;8.228;2022-07-29T15:12:10;99731.00;;;26.10
68932;BMP180;55970;50.064;8.228;2022-07-29T15:14:36;99749.00;;;26.00
68932;BMP180;55970;50.064;8.228;2022-07-29T15:17:01;99755.00;;;25.90
68932;BMP180;55970;50.064;8.228;2022-07-29T15:19:27;99770.00;;;25.80
68932;BMP180;55970;50.064;8.228;2022-07-29T15:21:52;99776.00;;;25.90
68932;BMP180;55970;50.064;8.228;2022-07-29T15:24:18;99785.00;;;25.60
68932;BMP180;55970;50.064;8.228;2022-07-29T15:26:44;99809.00;;;24.80
68932;BMP180;55970;50.064;8.228;2022-07-29T15:29:09;99800.00;;;25.20
68932;BMP180;55970;50.064;8.228;2022-07-29T15:31:35;99778.00;;;25.30
68932;BMP180;55970;50.064;8.228;2022-07-29T15:34:00;99780.00;;;25.40
68932;BMP180;55970;50.064;8.228;2022-07-29T15:36:25;99753.00;;;25.30
68932;BMP180;55970;50.064;8.228;2022-07-29T15:38:54;99741.00;;;25.30
68932;BMP180;55970;50.064;8.228;2022-07-29T15:41:20;99732.00;;;25.40
68932;BMP180;55970;50.064;8.228;2022-07-29T15:43:46;99728.00;;;25.50
68932;BMP180;55970;50.064;8.228;2022-07-29T15:46:14;99725.00;;;25.50
68932;BMP180;55970;50.064;8.228;2022-07-29T15:48:58;99726.00;;;25.60
68932;BMP180;55970;50.064;8.228;2022-07-29T15:51:24;99719.00;;;25.70
68932;BMP180;55970;50.064;8.228;2022-07-29T15:53:50;99717.00;;;25.70
68932;BMP180;55970;50.064;8.228;2022-07-29T15:56:15;99708.00;;;25.70
68932;BMP180;55970;50.064;8.228;2022-07-29T15:58:41;99710.00;;;25.80
68932;BMP180;55970;50.064;8.228;2022-07-29T16:01:06;99714.00;;;25.80
68932;BMP180;55970;50.064;8.228;2022-07-29T16:03:31;99709.00;;;25.80
68932;BMP180;55970;50.064;8.228;2022-07-29T16:05:57;99709.00;;;25.80
68932;BMP180;55970;50.064;8.228;2022-07-29T16:08:23;99701.00;;;25.80
68932;BMP180;55970;50.064;8.228;2022-07-29T16:10:48;99700.00;;;25.80
68932;BMP180;55970;50.064;8.228;2022-07-29T16:13:13;99692.00;;;25.90
68932;BMP180;55970;50.064;8.228;2022-07-29T16:15:39;99690.00;;;25.90
68932;BMP180;55970;50.064;8.228;2022-07-29T16:18:04;99706.00;;;25.90
68932;BMP180;55970;50.064;8.228;2022-07-29T16:20:30;99692.00;;;25.90
68932;BMP180;55970;50.064;8.228;2022-07-29T16:22:55;99693.00;;;26.00
68932;BMP180;55970;50.064;8.228;2022-07-29T16:25:21;99689.00;;;25.90
68932;BMP180;55970;50.064;8.228;2022-07-29T16:27:46;99690.00;;;25.90
68932;BMP180;55970;50.064;8.228;2022-07-29T16:30:12;99691.00;;;26.00
68932;BMP180;55970;50.064;8.228;2022-07-29T16:32:38;99696.00;;;26.00
68932;BMP180;55970;50.064;8.228;2022-07-29T16:35:05;99694.00;;;26.00
68932;BMP180;55970;50.064;8.228;2022-07-29T16:37:30;99696.00;;;26.00
68932;BMP180;55970;50.064;8.228;2022-07-29T16:40:00;99694.00;;;26.00
68932;BMP180;55970;50.064;8.228;2022-07-29T16:42:25;99697.00;;;26.00
68932;BMP180;55970;50.064;8.228;2022-07-29T16:44:51;99703.00;;;26.00
68932;BMP180;55970;50.064;8.228;2022-07-29T16:47:16;99705.00;;;26.00
68932;BMP180;55970;50.064;8.228;2022-07-29T16:49:41;99711.00;;;26.00
68932;BMP180;55970;50.064;8.228;2022-07-29T16:52:07;99720.00;;;26.00
68932;BMP180;55970;50.064;8.228;2022-07-29T16:54:32;99722.00;;;26.00
68932;BMP180;55970;50.064;8.228;2022-07-29T16:56:57;99747.00;;;26.00
68932;BMP180;55970;50.064;8.228;2022-07-29T16:59:25;99756.00;;;26.00
68932;BMP180;55970;50.064;8.228;2022-07-29T17:01:51;99752.00;;;26.00
68932;BMP180;55970;50.064;8.228;2022-07-29T17:04:16;99765.00;;;26.00
68932;BMP180;55970;50.064;8.228;2022-07-29T17:06:41;99751.00;;;26.00
68932;BMP180;55970;50.064;8.228;2022-07-29T17:09:09;99746.00;;;25.90
68932;BMP180;55970;50.064;8.228;2022-07-29T17:11:35;99742.00;;;26.00
68932;BMP180;55970;50.064;8.228;2022-07-29T17:14:01;99740.00;;;26.00
68932;BMP180;55970;50.064;8.228;2022-07-29T17:16:27;99745.00;;;26.00
68932;BMP180;55970;50.064;8.228;2022-07-29T17:18:54;99755.00;;;26.00
68932;BMP180;55970;50.064;8.228;2022-07-29T17:21:20;99764.00;;;26.00
68932;BMP180;55970;50.064;8.228;2022-07-29T17:23:46;99767.00;;;26.00
68932;BMP180;55970;50.064;8.228;2022-07-29T17:26:12;99772.00;;;26.00
68932;BMP180;55970;50.064;8.228;2022-07-29T17:28:37;99774.00;;;26.00
68932;BMP180;55970;50.064;8.228;2022-07-29T17:31:03;99757.00;;;26.00
68932;BMP180;55970;50.064;8.228;2022-07-29T17:33:28;99759.00;;;26.00
68932;BMP180;55970;50.064;8.228;2022-07-29T17:35:53;99755.00;;;26.00
68932;BMP180;55970;50.064;8.228;2022-07-29T17:38:37;99757.00;;;26.00
68932;BMP180;55970;50.064;8.228;2022-07-29T17:41:02;99760.00;;;26.00
68932;BMP180;55970;50.064;8.228;2022-07-29T17:43:28;99768.00;;;26.00
68932;BMP180;55970;50.064;8.228;2022-07-29T17:45:53;99771.00;;;26.10
68932;BMP180;55970;50.064;8.228;2022-07-29T17:48:19;99773.00;;;26.00
68932;BMP180;55970;50.064;8.228;2022-07-29T17:50:45;99774.00;;;26.00
68932;BMP180;55970;50.064;8.228;2022-07-29T17:53:10;99779.00;;;26.10
68932;BMP180;55970;50.064;8.228;2022-07-29T17:55:36;99776.00;;;26.10
68932;BMP180;55970;50.064;8.228;2022-07-29T17:58:03;99781.00;;;26.10
68932;BMP180;55970;50.064;8.228;2022-07-29T18:00:29;99778.00;;;26.10
68932;BMP180;55970;50.064;8.228;2022-07-29T18:02:54;99784.00;;;26.10
68932;BMP180;55970;50.064;8.228;2022-07-29T18:05:19;99786.00;;;26.10
68932;BMP180;55970;50.064;8.228;2022-07-29T18:07:45;99790.00;;;26.10
68932;BMP180;55970;50.064;8.228;2022-07-29T18:10:10;99793.00;;;26.10
68932;BMP180;55970;50.064;8.228;2022-07-29T18:12:36;99806.00;;;26.10
68932;BMP180;55970;50.064;8.228;2022-07-29T18:15:01;99801.00;;;26.10
68932;BMP180;55970;50.064;8.228;2022-07-29T18:17:26;99793.00;;;26.10
68932;BMP180;55970;50.064;8.228;2022-07-29T18:19:52;99807.00;;;26.10
68932;BMP180;55970;50.064;8.228;2022-07-29T18:22:18;99817.00;;;26.10
68932;BMP180;55970;50.064;8.228;2022-07-29T18:24:43;99826.00;;;26.10
68932;BMP180;55970;50.064;8.228;2022-07-29T18:27:08;99820.00;;;25.90
68932;BMP180;55970;50.064;8.228;2022-07-29T18:29:34;99835.00;;;25.70
68932;BMP180;55970;50.064;8.228;2022-07-29T18:31:59;99835.00;;;25.60
68932;BMP180;55970;50.064;8.228;2022-07-29T18:34:26;99835.00;;;25.50
68932;BMP180;55970;50.064;8.228;2022-07-29T18:36:51;99833.00;;;25.40
68932;BMP180;55970;50.064;8.228;2022-07-29T18:39:16;99843.00;;;25.40
68932;BMP180;55970;50.064;8.228;2022-07-29T18:41:42;99845.00;;;25.30
68932;BMP180;55970;50.064;8.228;2022-07-29T18:44:08;99842.00;;;25.20
68932;BMP180;55970;50.064;8.228;2022-07-29T18:46:33;99838.00;;;25.30
68932;BMP180;55970;50.064;8.228;2022-07-29T18:48:59;99834.00;;;25.20
68932;BMP180;55970;50.064;8.228;2022-07-29T18:51:24;99838.00;;;25.10
68932;BMP180;55970;50.064;8.228;2022-07-29T18:53:50;99840.00;;;25.10
68932;BMP180;55970;50.064;8.228;2022-07-29T18:56:16;99848.00;;;25.20
68932;BMP180;55970;50.064;8.228;2022-07-29T18:58:42;99858.00;;;25.00
68932;BMP180;55970;50.064;8.228;2022-07-29T19:01:07;99850.00;;;25.00
68932;BMP180;55970;50.064;8.228;2022-07-29T19:03:32;99846.00;;;25.00
68932;BMP180;55970;50.064;8.228;2022-07-29T19:05:58;99858.00;;;25.10
68932;BMP180;55970;50.064;8.228;2022-07-29T19:08:23;99860.00;;;24.90
68932;BMP180;55970;50.064;8.228;2022-07-29T19:10:49;99874.00;;;25.00
68932;BMP180;55970;50.064;8.228;2022-07-29T19:13:14;99871.00;;;24.90
68932;BMP180;55970;50.064;8.228;2022-07-29T19:15:39;99878.00;;;24.90
68932;BMP180;55970;50.064;8.228;2022-07-29T19:18:05;99886.00;;;24.90
68932;BMP180;55970;50.064;8.228;2022-07-29T19:20:31;99885.00;;;24.80
68932;BMP180;55970;50.064;8.228;2022-07-29T19:22:56;99887.00;;;24.70
68932;BMP180;55970;50.064;8.228;2022-07-29T19:25:23;99891.00;;;24.70
68932;BMP180;55970;50.064;8.228;2022-07-29T19:27:48;99892.00;;;24.60
68932;BMP180;55970;50.064;8.228;2022-07-29T19:30:13;99900.00;;;24.60
68932;BMP180;55970;50.064;8.228;2022-07-29T19:32:40;99905.00;;;24.50
68932;BMP180;55970;50.064;8.228;2022-07-29T19:35:06;99908.00;;;24.40
68932;BMP180;55970;50.064;8.228;2022-07-29T19:37:53;99921.00;;;24.40
68932;BMP180;55970;50.064;8.228;2022-07-29T19:40:19;99922.00;;;24.40
68932;BMP180;55970;50.064;8.228;2022-07-29T19:42:45;99934.00;;;24.40
68932;BMP180;55970;50.064;8.228;2022-07-29T19:45:13;99929.00;;;24.50
68932;BMP180;55970;50.064;8.228;2022-07-29T19:47:39;99923.00;;;24.70
68932;BMP180;55970;50.064;8.228;2022-07-29T19:50:05;99927.00;;;24.70
68932;BMP180;55970;50.064;8.228;2022-07-29T19:52:31;99919.00;;;24.60
68932;BMP180;55970;50.064;8.228;2022-07-29T19:54:56;99918.00;;;24.60
68932;BMP180;55970;50.064;8.228;2022-07-29T19:57:21;99917.00;;;24.60
68932;BMP180;55970;50.064;8.228;2022-07-29T19:59:47;99930.00;;;24.50
68932;BMP180;55970;50.064;8.228;2022-07-29T20:02:12;99934.00;;;24.40
68932;BMP180;55970;50.064;8.228;2022-07-29T20:04:38;99940.00;;;24.30
68932;BMP180;55970;50.064;8.228;2022-07-29T20:07:04;99947.00;;;24.30
68932;BMP180;55970;50.064;8.228;2022-07-29T20:09:30;99951.00;;;24.30
68932;BMP180;55970;50.064;8.228;2022-07-29T20:11:56;99955.00;;;24.50
68932;BMP180;55970;50.064;8.228;2022-07-29T20:14:22;99955.00;;;24.40
68932;BMP180;55970;50.064;8.228;2022-07-29T20:16:47;99948.00;;;24.50
68932;BMP180;55970;50.064;8.228;2022-07-29T20:19:13;99949.00;;;24.50
68932;BMP180;55970;50.064;8.228;2022-07-29T20:21:38;99949.00;;;24.50
68932;BMP180;55970;50.064;8.228;2022-07-29T20:24:04;99949.00;;;24.50
68932;BMP180;55970;50.064;8.228;2022-07-29T20:26:30;99949.00;;;24.50
68932;BMP180;55970;50.064;8.228;2022-07-29T20:28:55;99946.00;;;24.50
68932;BMP180;55970;50.064;8.228;2022-07-29T20:31:21;99953.00;;;24.60
68932;BMP180;55970;50.064;8.228;2022-07-29T20:33:46;99952.00;;;24.60
68932;BMP180;55970;50.064;8.228;2022-07-29T20:36:12;99956.00;;;24.60
68932;BMP180;55970;50.064;8.228;2022-07-29T20:38:37;99954.00;;;24.50
68932;BMP180;55970;50.064;8.228;2022-07-29T20:41:03;99949.00;;;24.50
68932;BMP180;55970;50.064;8.228;2022-07-29T20:43:29;99955.00;;;24.60
68932;BMP180;55970;50.064;8.228;2022-07-29T20:45:54;99958.00;;;24.60
68932;BMP180;55970;50.064;8.228;2022-07-29T20:48:20;99950.00;;;24.50
68932;BMP180;55970;50.064;8.228;2022-07-29T20:50:45;99949.00;;;24.50
68932;BMP180;55970;50.064;8.228;2022-07-29T20:53:12;99951.00;;;24.60
68932;BMP180;55970;50.064;8.228;2022-07-29T20:55:38;99957.00;;;24.50
68932;BMP180;55970;50.064;8.228;2022-07-29T20:58:03;99961.00;;;24.50
68932;BMP180;55970;50.064;8.228;2022-07-29T21:00:29;99962.00;;;24.50
68932;BMP180;55970;50.064;8.228;2022-07-29T21:02:55;99956.00;;;24.40
68932;BMP180;55970;50.064;8.228;2022-07-29T21:05:21;99952.00;;;24.50
68932;BMP180;55970;50.064;8.228;2022-07-29T21:07:46;99954.00;;;24.50
68932;BMP180;55970;50.064;8.228;2022-07-29T21:10:12;99962.00;;;24.50
68932;BMP180;55970;50.064;8.228;2022-07-29T21:12:38;99963.00;;;24.40
68932;BMP180;55970;50.064;8.228;2022-07-29T21:15:04;99960.00;;;24.40
68932;BMP180;55970;50.064;8.228;2022-07-29T21:17:31;99959.00;;;24.40
68932;BMP180;55970;50.064;8.228;2022-07-29T21:20:01;99960.00;;;24.50
68932;BMP180;55970;50.064;8.228;2022-07-29T21:22:26;99967.00;;;24.40
68932;BMP180;55970;50.064;8.228;2022-07-29T21:24:52;99977.00;;;24.50
68932;BMP180;55970;50.064;8.228;2022-07-29T21:27:17;99963.00;;;24.40
68932;BMP180;55970;50.064;8.228;2022-07-29T21:30:01;99967.00;;;24.40
68932;BMP180;55970;50.064;8.228;2022-07-29T21:32:26;99958.00;;;24.30
68932;BMP180;55970;50.064;8.228;2022-07-29T21:34:51;99954.00;;;24.40
68932;BMP180;55970;50.064;8.228;2022-07-29T21:37:17;99957.00;;;24.40
68932;BMP180;55970;50.064;8.228;2022-07-29T21:39:42;99960.00;;;24.40
68932;BMP180;55970;50.064;8.228;2022-07-29T21:42:08;99952.00;;;24.30
68932;BMP180;55970;50.064;8.228;2022-07-29T21:44:33;99950.00;;;24.30
68932;BMP180;55970;50.064;8.228;2022-07-29T21:47:05;99952.00;;;24.20
68932;BMP180;55970;50.064;8.228;2022-07-29T21:49:31;99950.00;;;24.30
68932;BMP180;55970;50.064;8.228;2022-07-29T21:51:56;99942.00;;;24.30
68932;BMP180;55970;50.064;8.228;2022-07-29T21:54:21;99946.00;;;24.30
68932;BMP180;55970;50.064;8.228;2022-07-29T21:56:47;99947.00;;;24.20
68932;BMP180;55970;50.064;8.228;2022-07-29T21:59:12;99954.00;;;24.20
68932;BMP180;55970;50.064;8.228;2022-07-29T22:01:38;99954.00;;;24.10
68932;BMP180;55970;50.064;8.228;2022-07-29T22:04:03;99961.00;;;24.10
68932;BMP180;55970;50.064;8.228;2022-07-29T22:06:29;99962.00;;;24.10
68932;BMP180;55970;50.064;8.228;2022-07-29T22:08:57;99960.00;;;24.00
68932;BMP180;55970;50.064;8.228;2022-07-29T22:11:22;99961.00;;;24.00
68932;BMP180;55970;50.064;8.228;2022-07-29T22:13:47;99963.00;;;24.00
68932;BMP180;55970;50.064;8.228;2022-07-29T22:16:13;99963.00;;;23.90
68932;BMP180;55970;50.064;8.228;2022-07-29T22:18:39;99966.00;;;24.00
68932;BMP180;55970;50.064;8.228;2022-07-29T22:21:04;99959.00;;;24.00
68932;BMP180;55970;50.064;8.228;2022-07-29T22:23:30;99959.00;;;24.00
68932;BMP180;55970;50.064;8.228;2022-07-29T22:25:55;99956.00;;;23.90
68932;BMP180;55970;50.064;8.228;2022-07-29T22:28:21;99963.00;;;23.90
68932;BMP180;55970;50.064;8.228;2022-07-29T22:30:46;99971.00;;;24.00
68932;BMP180;55970;50.064;8.228;2022-07-29T22:33:12;99974.00;;;23.90
68932;BMP180;55970;50.064;8.228;2022-07-29T22:35:37;99985.00;;;23.90
68932;BMP180;55970;50.064;8.228;2022-07-29T22:38:02;99986.00;;;23.80
68932;BMP180;55970;50.064;8.228;2022-07-29T22:40:28;99983.00;;;23.90
68932;BMP180;55970;50.064;8.228;2022-07-29T22:42:53;99985.00;;;23.90
68932;BMP180;55970;50.064;8.228;2022-07-29T22:45:18;99988.00;;;24.20
68932;BMP180;55970;50.064;8.228;2022-07-29T22:47:44;99985.00;;;24.30
68932;BMP180;55970;50.064;8.228;2022-07-29T22:50:09;99984.00;;;24.30
68932;BMP180;55970;50.064;8.228;2022-07-29T22:52:34;99981.00;;;24.30
68932;BMP180;55970;50.064;8.228;2022-07-29T22:55:00;99989.00;;;24.30
68932;BMP180;55970;50.064;8.228;2022-07-29T22:57:25;99997.00;;;24.30
68932;BMP180;55970;50.064;8.228;2022-07-29T22:59:51;99993.00;;;24.20
68932;BMP180;55970;50.064;8.228;2022-07-29T23:02:16;99996.00;;;24.10
68932;BMP180;55970;50.064;8.228;2022-07-29T23:04:41;99994.00;;;24.00
68932;BMP180;55970;50.064;8.228;2022-07-29T23:07:07;99995.00;;;24.00
68932;BMP180;55970;50.064;8.228;2022-07-29T23:09:32;99989.00;;;23.90
68932;BMP180;55970;50.064;8.228;2022-07-29T23:11:57;99991.00;;;23.80
68932;BMP180;55970;50.064;8.228;2022-07-29T23:14:23;99994.00;;;23.60
68932;BMP180;55970;50.064;8.228;2022-07-29T23:16:48;100002.00;;;23.50
68932;BMP180;55970;50.064;8.228;2022-07-29T23:19:13;99993.00;;;23.40
68932;BMP180;55970;50.064;8.228;2022-07-29T23:21:39;100008.00;;;23.20
68932;BMP180;55970;50.064;8.228;2022-07-29T23:24:04;100001.00;;;23.20
68932;BMP180;55970;50.064;8.228;2022-07-29T23:26:29;100012.00;;;23.10
68932;BMP180;55970;50.064;8.228;2022-07-29T23:28:55;100010.00;;;23.00
68932;BMP180;55970;50.064;8.228;2022-07-29T23:31:21;100004.00;;;22.90
68932;BMP180;55970;50.064;8.228;2022-07-29T23:33:46;100007.00;;;22.90
68932;BMP180;55970;50.064;8.228;2022-07-29T23:36:12;100008.00;;;22.90
68932;BMP180;55970;50.064;8.228;2022-07-29T23:38:38;99991.00;;;22.80
68932;BMP180;55970;50.064;8.228;2022-07-29T23:41:05;100004.00;;;22.30
68932;BMP180;55970;50.064;8.228;2022-07-29T23:43:34;100001.00;;;22.20
68932;BMP180;55970;50.064;8.228;2022-07-29T23:45:59;99998.00;;;22.20
68932;BMP180;55970;50.064;8.228;2022-07-29T23:48:24;100003.00;;;22.40
68932;BMP180;55970;50.064;8.228;2022-07-29T23:50:51;99988.00;;;22.50
68932;BMP180;55970;50.064;8.228;2022-07-29T23:53:16;99988.00;;;22.60
68932;BMP180;55970;50.064;8.228;2022-07-29T23:55:41;99986.00;;;22.70
68932;BMP180;55970;50.064;8.228;2022-07-29T23:58:07;99991.00;;;22.80
